New Orleans NAS, Louisiana
Current Conditions -  °F | °C
As of 3:55 PM on Thursday 20 Nov 2014 (Local Time) from KNBG Reporting Station
Scattered Clouds Scattered Clouds  
Wind Chill: 67°   Ceiling: Unl
Heat Index: 67°   Visibility: 10mi
Dew Point: 42°   Wind: 10mph
Humidity: 40%   Direction: 170°S
Pressure: 30.21"   Gusts: NA
Location:  29.83°N, 90.02°W
Report Text: KNBG 202155Z 17009KT 10SM SCT060 SCT250 19/06 A3021 RMK AO2 SLP228 T01940056 $
Loading
Personal Weather Stations






























Interactive Weather Map New forecast layout! Learn more

10-Day Weather Forecast

Advertisements
Track Severe Weather on mobile